createdAt,value
2023-02-06T04:44:23.244Z,37.77
2023-02-06T04:59:27.989Z,42.33
2023-02-06T05:14:32.473Z,48.37
2023-02-06T05:29:36.962Z,60.17
2023-02-06T05:44:41.469Z,57.30
2023-02-06T05:59:45.953Z,59.73
2023-02-06T06:14:50.498Z,51.63
2023-02-06T06:29:54.973Z,64.70
2023-02-06T06:44:59.753Z,45.90
2023-02-06T07:00:05.830Z,39.33
2023-02-06T07:15:11.390Z,51.60
2023-02-06T07:30:16.610Z,33.57
2023-02-06T07:45:21.048Z,41.57
2023-02-06T08:00:25.891Z,37.90
2023-02-06T08:15:30.439Z,33.83
2023-02-06T08:30:36.976Z,46.93
2023-02-06T08:45:41.674Z,51.07
2023-02-06T09:00:46.197Z,43.20
2023-02-06T09:15:54.248Z,34.90
2023-02-06T09:30:58.884Z,33.03
2023-02-06T09:46:06.081Z,43.27
2023-02-06T10:01:18.931Z,35.27
2023-02-06T10:16:37.573Z,35.67
2023-02-06T10:32:01.036Z,35.03
2023-02-06T10:47:16.951Z,27.80
2023-02-06T11:02:25.249Z,37.13
2023-02-06T11:17:31.577Z,32.03
2023-02-06T11:32:40.984Z,35.10
2023-02-06T11:47:45.435Z,27.80
2023-02-06T12:02:56.434Z,40.27
2023-02-06T12:18:06.016Z,22.17
2023-02-06T12:33:16.941Z,28.70
2023-02-06T12:48:26.323Z,16.97
2023-02-06T13:03:34.016Z,51.37
2023-02-06T13:19:02.685Z,37.27
2023-02-06T13:34:17.172Z,36.67
2023-02-06T13:49:48.939Z,23.83
2023-02-06T14:04:53.580Z,13.87
2023-02-06T14:20:09.083Z,15.47
2023-02-06T14:35:31.423Z,16.33
2023-02-06T14:50:40.490Z,13.40
2023-02-06T15:05:45.454Z,18.37
2023-02-06T15:20:54.960Z,20.10
2023-02-06T15:36:01.948Z,15.23
2023-02-06T15:51:20.321Z,12.67
2023-02-06T16:06:24.963Z,10.63
2023-02-06T16:21:31.750Z,13.37
2023-02-06T16:36:36.167Z,4.83
2023-02-06T16:51:43.059Z,10.63
2023-02-06T17:06:47.802Z,13.83
2023-02-06T17:21:53.177Z,9.17
2023-02-06T17:36:58.078Z,16.47
2023-02-06T17:52:02.626Z,10.27
2023-02-06T18:07:07.926Z,15.23
2023-02-06T18:22:15.846Z,29.10
2023-02-06T18:37:20.521Z,22.53
2023-02-06T18:52:25.101Z,17.23
2023-02-06T19:07:30.235Z,17.23
2023-02-06T19:22:36.290Z,18.83
2023-02-06T19:37:41.414Z,16.77
2023-02-06T19:52:46.116Z,27.40
2023-02-06T20:07:50.558Z,30.43
2023-02-06T20:22:55.056Z,53.40
2023-02-06T20:38:00.209Z,16.37
2023-02-06T20:53:04.674Z,26.97
2023-02-06T21:08:09.559Z,25.80
